sensor_id;sensor_type;location;lat;lon;timestamp;temperature;humidity
29207;DHT22;16247;50.840;4.382;2023-08-31T04:07:43;13.50;99.90
29207;DHT22;16247;50.840;4.382;2023-08-31T04:13:39;13.50;99.90
29207;DHT22;16247;50.840;4.382;2023-08-31T04:16:27;13.50;99.90
29207;DHT22;16247;50.840;4.382;2023-08-31T04:19:05;13.50;99.90
29207;DHT22;16247;50.840;4.382;2023-08-31T04:44:03;13.20;99.90
29207;DHT22;16247;50.840;4.382;2023-08-31T05:32:16;13.20;99.90
29207;DHT22;16247;50.840;4.382;2023-08-31T06:01:31;13.40;99.90
29207;DHT22;16247;50.840;4.382;2023-08-31T06:04:03;13.40;99.90
29207;DHT22;16247;50.840;4.382;2023-08-31T06:06:31;13.50;99.90
29207;DHT22;16247;50.840;4.382;2023-08-31T06:09:09;13.50;99.90
29207;DHT22;16247;50.840;4.382;2023-08-31T06:11:45;13.60;99.90
29207;DHT22;16247;50.840;4.382;2023-08-31T06:14:14;13.60;99.90
29207;DHT22;16247;50.840;4.382;2023-08-31T06:16:59;13.60;99.90
29207;DHT22;16247;50.840;4.382;2023-08-31T06:19:25;13.60;99.90
29207;DHT22;16247;50.840;4.382;2023-08-31T06:21:50;13.60;99.90
29207;DHT22;16247;50.840;4.382;2023-08-31T06:24:16;13.60;99.90
29207;DHT22;16247;50.840;4.382;2023-08-31T06:26:42;13.70;99.90
29207;DHT22;16247;50.840;4.382;2023-08-31T06:29:07;13.70;99.90
29207;DHT22;16247;50.840;4.382;2023-08-31T06:31:36;13.80;99.90
29207;DHT22;16247;50.840;4.382;2023-08-31T06:34:01;13.70;99.90
29207;DHT22;16247;50.840;4.382;2023-08-31T06:36:27;13.80;99.90
29207;DHT22;16247;50.840;4.382;2023-08-31T06:38:53;13.90;99.90
29207;DHT22;16247;50.840;4.382;2023-08-31T06:41:19;14.00;99.90
29207;DHT22;16247;50.840;4.382;2023-08-31T06:43:44;13.90;99.90
29207;DHT22;16247;50.840;4.382;2023-08-31T06:46:11;14.00;99.90
29207;DHT22;16247;50.840;4.382;2023-08-31T06:48:38;14.10;99.90
29207;DHT22;16247;50.840;4.382;2023-08-31T06:51:06;14.20;99.90
29207;DHT22;16247;50.840;4.382;2023-08-31T06:53:32;14.20;99.90
29207;DHT22;16247;50.840;4.382;2023-08-31T06:55:57;14.20;99.90
29207;DHT22;16247;50.840;4.382;2023-08-31T06:58:23;14.30;99.90
29207;DHT22;16247;50.840;4.382;2023-08-31T07:00:48;14.30;99.90
29207;DHT22;16247;50.840;4.382;2023-08-31T07:03:14;14.40;99.90
29207;DHT22;16247;50.840;4.382;2023-08-31T07:05:43;14.50;99.90
29207;DHT22;16247;50.840;4.382;2023-08-31T07:08:10;14.50;99.90
29207;DHT22;16247;50.840;4.382;2023-08-31T07:10:35;14.60;99.90
29207;DHT22;16247;50.840;4.382;2023-08-31T07:13:04;14.60;99.90
29207;DHT22;16247;50.840;4.382;2023-08-31T07:15:30;14.70;99.90
29207;DHT22;16247;50.840;4.382;2023-08-31T07:17:56;14.80;99.90
29207;DHT22;16247;50.840;4.382;2023-08-31T07:20:21;14.80;99.90
29207;DHT22;16247;50.840;4.382;2023-08-31T07:22:47;14.90;99.90
29207;DHT22;16247;50.840;4.382;2023-08-31T07:25:16;14.90;99.90
29207;DHT22;16247;50.840;4.382;2023-08-31T07:27:43;14.90;99.90
29207;DHT22;16247;50.840;4.382;2023-08-31T07:30:09;15.00;99.90
29207;DHT22;16247;50.840;4.382;2023-08-31T07:32:36;15.00;99.90
29207;DHT22;16247;50.840;4.382;2023-08-31T07:35:01;15.00;99.90
29207;DHT22;16247;50.840;4.382;2023-08-31T07:37:30;15.00;99.90
29207;DHT22;16247;50.840;4.382;2023-08-31T07:39:57;15.20;99.90
29207;DHT22;16247;50.840;4.382;2023-08-31T07:42:25;15.30;99.90
29207;DHT22;16247;50.840;4.382;2023-08-31T07:44:51;15.40;99.90
29207;DHT22;16247;50.840;4.382;2023-08-31T07:47:18;15.30;99.90
29207;DHT22;16247;50.840;4.382;2023-08-31T07:49:45;15.40;99.90
29207;DHT22;16247;50.840;4.382;2023-08-31T07:52:10;15.60;99.90
29207;DHT22;16247;50.840;4.382;2023-08-31T07:54:36;15.70;99.90
29207;DHT22;16247;50.840;4.382;2023-08-31T07:57:02;15.80;99.90
29207;DHT22;16247;50.840;4.382;2023-08-31T07:59:27;16.00;99.90
29207;DHT22;16247;50.840;4.382;2023-08-31T08:01:53;16.00;99.90
29207;DHT22;16247;50.840;4.382;2023-08-31T08:04:21;15.80;99.90
29207;DHT22;16247;50.840;4.382;2023-08-31T08:06:49;15.90;99.90
29207;DHT22;16247;50.840;4.382;2023-08-31T08:09:15;15.90;99.90
29207;DHT22;16247;50.840;4.382;2023-08-31T08:11:41;16.10;99.90
29207;DHT22;16247;50.840;4.382;2023-08-31T08:14:07;16.20;99.90
29207;DHT22;16247;50.840;4.382;2023-08-31T08:16:33;16.20;99.90
29207;DHT22;16247;50.840;4.382;2023-08-31T08:19:01;16.30;99.90
29207;DHT22;16247;50.840;4.382;2023-08-31T08:21:27;16.40;99.90
29207;DHT22;16247;50.840;4.382;2023-08-31T08:23:53;16.40;99.90
29207;DHT22;16247;50.840;4.382;2023-08-31T08:26:19;16.40;99.90
29207;DHT22;16247;50.840;4.382;2023-08-31T08:28:44;16.40;99.90
29207;DHT22;16247;50.840;4.382;2023-08-31T08:31:11;16.30;99.90
29207;DHT22;16247;50.840;4.382;2023-08-31T08:33:37;16.50;99.90
29207;DHT22;16247;50.840;4.382;2023-08-31T08:36:02;16.50;99.90
29207;DHT22;16247;50.840;4.382;2023-08-31T08:38:28;16.60;99.90
29207;DHT22;16247;50.840;4.382;2023-08-31T08:40:54;16.70;99.90
29207;DHT22;16247;50.840;4.382;2023-08-31T08:43:25;16.90;99.90
29207;DHT22;16247;50.840;4.382;2023-08-31T08:45:54;17.10;99.90
29207;DHT22;16247;50.840;4.382;2023-08-31T08:48:20;17.20;99.90
29207;DHT22;16247;50.840;4.382;2023-08-31T08:50:47;17.40;99.90
29207;DHT22;16247;50.840;4.382;2023-08-31T08:53:14;17.50;99.90
29207;DHT22;16247;50.840;4.382;2023-08-31T08:55:41;17.60;99.90
29207;DHT22;16247;50.840;4.382;2023-08-31T08:58:06;17.60;99.90
29207;DHT22;16247;50.840;4.382;2023-08-31T09:00:32;17.70;99.90
29207;DHT22;16247;50.840;4.382;2023-08-31T09:03:01;17.80;99.90
29207;DHT22;16247;50.840;4.382;2023-08-31T09:05:33;17.60;99.90
29207;DHT22;16247;50.840;4.382;2023-08-31T09:08:07;17.70;99.90
29207;DHT22;16247;50.840;4.382;2023-08-31T09:10:45;17.90;99.90
29207;DHT22;16247;50.840;4.382;2023-08-31T09:13:12;18.00;99.90
29207;DHT22;16247;50.840;4.382;2023-08-31T09:15:45;18.00;99.90
29207;DHT22;16247;50.840;4.382;2023-08-31T09:18:25;18.20;99.90
29207;DHT22;16247;50.840;4.382;2023-08-31T09:20:52;18.00;99.90
29207;DHT22;16247;50.840;4.382;2023-08-31T09:23:18;18.00;99.90
29207;DHT22;16247;50.840;4.382;2023-08-31T09:25:53;18.10;99.90
29207;DHT22;16247;50.840;4.382;2023-08-31T09:28:27;18.20;99.90
29207;DHT22;16247;50.840;4.382;2023-08-31T09:30:53;18.20;99.90
29207;DHT22;16247;50.840;4.382;2023-08-31T09:33:27;18.40;99.90
29207;DHT22;16247;50.840;4.382;2023-08-31T09:35:59;18.40;99.90
29207;DHT22;16247;50.840;4.382;2023-08-31T09:38:26;18.50;99.90
29207;DHT22;16247;50.840;4.382;2023-08-31T09:40:53;18.40;99.90
29207;DHT22;16247;50.840;4.382;2023-08-31T09:43:29;18.40;99.90
29207;DHT22;16247;50.840;4.382;2023-08-31T09:45:55;18.60;99.90
29207;DHT22;16247;50.840;4.382;2023-08-31T09:48:22;18.60;99.90
29207;DHT22;16247;50.840;4.382;2023-08-31T09:50:48;18.70;99.90
29207;DHT22;16247;50.840;4.382;2023-08-31T09:53:20;18.80;99.90
29207;DHT22;16247;50.840;4.382;2023-08-31T09:55:47;18.90;99.90
29207;DHT22;16247;50.840;4.382;2023-08-31T09:58:17;19.10;99.90
29207;DHT22;16247;50.840;4.382;2023-08-31T10:00:46;19.10;99.90
29207;DHT22;16247;50.840;4.382;2023-08-31T10:03:12;19.20;99.90
29207;DHT22;16247;50.840;4.382;2023-08-31T10:05:42;19.10;99.90
29207;DHT22;16247;50.840;4.382;2023-08-31T10:08:08;19.00;99.90
29207;DHT22;16247;50.840;4.382;2023-08-31T10:10:34;19.20;99.90
29207;DHT22;16247;50.840;4.382;2023-08-31T10:13:03;19.20;99.90
29207;DHT22;16247;50.840;4.382;2023-08-31T10:15:32;19.60;99.90
29207;DHT22;16247;50.840;4.382;2023-08-31T10:18:03;19.20;99.90
29207;DHT22;16247;50.840;4.382;2023-08-31T10:20:30;19.20;99.90
29207;DHT22;16247;50.840;4.382;2023-08-31T10:23:06;19.10;99.90
29207;DHT22;16247;50.840;4.382;2023-08-31T10:28:22;19.50;99.90
29207;DHT22;16247;50.840;4.382;2023-08-31T10:34:07;19.80;99.90
29207;DHT22;16247;50.840;4.382;2023-08-31T10:36:44;19.90;99.90
29207;DHT22;16247;50.840;4.382;2023-08-31T10:39:24;19.80;99.90
29207;DHT22;16247;50.840;4.382;2023-08-31T10:42:00;19.80;99.90
29207;DHT22;16247;50.840;4.382;2023-08-31T10:44:31;19.90;99.90
29207;DHT22;16247;50.840;4.382;2023-08-31T10:46:59;19.90;99.90
29207;DHT22;16247;50.840;4.382;2023-08-31T10:49:25;20.20;99.90
29207;DHT22;16247;50.840;4.382;2023-08-31T10:52:15;20.30;99.90
29207;DHT22;16247;50.840;4.382;2023-08-31T10:54:45;20.10;99.90
29207;DHT22;16247;50.840;4.382;2023-08-31T10:57:11;19.80;99.90
29207;DHT22;16247;50.840;4.382;2023-08-31T10:59:56;19.70;99.90
29207;DHT22;16247;50.840;4.382;2023-08-31T11:02:35;19.40;99.90
29207;DHT22;16247;50.840;4.382;2023-08-31T11:05:11;19.60;99.90
29207;DHT22;16247;50.840;4.382;2023-08-31T11:07:44;19.80;99.90
29207;DHT22;16247;50.840;4.382;2023-08-31T11:10:20;19.80;99.90
29207;DHT22;16247;50.840;4.382;2023-08-31T11:12:52;20.00;99.90
29207;DHT22;16247;50.840;4.382;2023-08-31T11:15:24;19.80;99.90
29207;DHT22;16247;50.840;4.382;2023-08-31T11:17:52;19.90;99.90
29207;DHT22;16247;50.840;4.382;2023-08-31T11:22:51;19.90;99.90
29207;DHT22;16247;50.840;4.382;2023-08-31T11:25:23;20.00;99.90
29207;DHT22;16247;50.840;4.382;2023-08-31T11:27:58;20.00;99.90
29207;DHT22;16247;50.840;4.382;2023-08-31T11:30:27;20.10;99.90
29207;DHT22;16247;50.840;4.382;2023-08-31T11:32:53;20.30;99.90
29207;DHT22;16247;50.840;4.382;2023-08-31T11:35:22;20.20;99.90
29207;DHT22;16247;50.840;4.382;2023-08-31T11:37:55;20.10;99.90
29207;DHT22;16247;50.840;4.382;2023-08-31T11:40:26;20.10;99.90
29207;DHT22;16247;50.840;4.382;2023-08-31T11:42:53;19.90;99.90
29207;DHT22;16247;50.840;4.382;2023-08-31T11:45:20;19.70;99.90
29207;DHT22;16247;50.840;4.382;2023-08-31T11:47:47;19.70;99.90
29207;DHT22;16247;50.840;4.382;2023-08-31T11:50:14;20.10;99.90
29207;DHT22;16247;50.840;4.382;2023-08-31T11:52:44;20.00;99.90
29207;DHT22;16247;50.840;4.382;2023-08-31T11:55:11;20.10;99.90
29207;DHT22;16247;50.840;4.382;2023-08-31T11:57:39;20.30;99.90
29207;DHT22;16247;50.840;4.382;2023-08-31T12:00:09;20.30;99.90
29207;DHT22;16247;50.840;4.382;2023-08-31T12:02:37;20.40;99.90
29207;DHT22;16247;50.840;4.382;2023-08-31T12:05:05;20.20;99.90
29207;DHT22;16247;50.840;4.382;2023-08-31T12:07:31;20.00;99.90
29207;DHT22;16247;50.840;4.382;2023-08-31T12:10:04;19.90;99.90
29207;DHT22;16247;50.840;4.382;2023-08-31T12:12:30;19.80;99.90
29207;DHT22;16247;50.840;4.382;2023-08-31T12:14:59;19.90;99.90
29207;DHT22;16247;50.840;4.382;2023-08-31T12:17:30;20.10;99.90
29207;DHT22;16247;50.840;4.382;2023-08-31T12:20:05;20.30;99.90
29207;DHT22;16247;50.840;4.382;2023-08-31T12:22:35;20.20;99.90
29207;DHT22;16247;50.840;4.382;2023-08-31T12:25:04;20.40;99.90
29207;DHT22;16247;50.840;4.382;2023-08-31T12:27:32;20.10;99.90
29207;DHT22;16247;50.840;4.382;2023-08-31T12:29:58;20.00;99.90
29207;DHT22;16247;50.840;4.382;2023-08-31T12:32:24;19.80;99.90
29207;DHT22;16247;50.840;4.382;2023-08-31T12:34:50;19.80;99.90
29207;DHT22;16247;50.840;4.382;2023-08-31T12:37:16;19.90;99.90
29207;DHT22;16247;50.840;4.382;2023-08-31T12:40:00;19.80;99.90
29207;DHT22;16247;50.840;4.382;2023-08-31T12:45:57;20.00;99.90
29207;DHT22;16247;50.840;4.382;2023-08-31T12:48:23;20.00;99.90
29207;DHT22;16247;50.840;4.382;2023-08-31T12:50:49;20.10;99.90
29207;DHT22;16247;50.840;4.382;2023-08-31T12:53:15;20.20;99.90
29207;DHT22;16247;50.840;4.382;2023-08-31T12:55:42;20.30;99.90
29207;DHT22;16247;50.840;4.382;2023-08-31T12:58:08;20.30;99.90
29207;DHT22;16247;50.840;4.382;2023-08-31T13:00:34;20.20;99.90
29207;DHT22;16247;50.840;4.382;2023-08-31T13:03:00;20.20;99.90
29207;DHT22;16247;50.840;4.382;2023-08-31T13:05:27;20.20;99.90
29207;DHT22;16247;50.840;4.382;2023-08-31T13:07:54;20.30;99.90
29207;DHT22;16247;50.840;4.382;2023-08-31T13:10:20;20.30;99.90
29207;DHT22;16247;50.840;4.382;2023-08-31T13:12:46;20.20;99.90
29207;DHT22;16247;50.840;4.382;2023-08-31T13:15:12;20.30;99.90
29207;DHT22;16247;50.840;4.382;2023-08-31T13:17:39;20.40;99.90
29207;DHT22;16247;50.840;4.382;2023-08-31T13:20:07;20.40;99.90
29207;DHT22;16247;50.840;4.382;2023-08-31T13:22:36;20.70;99.90
29207;DHT22;16247;50.840;4.382;2023-08-31T13:25:06;20.70;99.90
29207;DHT22;16247;50.840;4.382;2023-08-31T13:27:33;20.50;99.90
29207;DHT22;16247;50.840;4.382;2023-08-31T13:29:59;20.50;99.90
29207;DHT22;16247;50.840;4.382;2023-08-31T13:32:26;20.50;99.90
29207;DHT22;16247;50.840;4.382;2023-08-31T13:34:52;20.50;99.90
29207;DHT22;16247;50.840;4.382;2023-08-31T13:37:24;20.70;99.90
29207;DHT22;16247;50.840;4.382;2023-08-31T13:39:50;21.00;99.90
29207;DHT22;16247;50.840;4.382;2023-08-31T13:42:20;21.00;99.90
29207;DHT22;16247;50.840;4.382;2023-08-31T13:44:47;21.00;99.90
29207;DHT22;16247;50.840;4.382;2023-08-31T13:47:14;20.90;99.90
29207;DHT22;16247;50.840;4.382;2023-08-31T13:49:41;20.90;99.90
29207;DHT22;16247;50.840;4.382;2023-08-31T13:52:08;20.80;99.90
29207;DHT22;16247;50.840;4.382;2023-08-31T13:54:36;20.80;99.90
29207;DHT22;16247;50.840;4.382;2023-08-31T13:57:03;20.70;99.90
29207;DHT22;16247;50.840;4.382;2023-08-31T13:59:32;20.80;99.90
29207;DHT22;16247;50.840;4.382;2023-08-31T14:02:00;20.60;99.90
29207;DHT22;16247;50.840;4.382;2023-08-31T14:04:34;20.60;99.90
29207;DHT22;16247;50.840;4.382;2023-08-31T14:07:47;20.90;99.90
29207;DHT22;16247;50.840;4.382;2023-08-31T14:13:23;20.80;99.90
29207;DHT22;16247;50.840;4.382;2023-08-31T14:15:52;20.60;99.90
29207;DHT22;16247;50.840;4.382;2023-08-31T14:18:19;20.60;99.90
29207;DHT22;16247;50.840;4.382;2023-08-31T14:20:48;20.50;99.90
29207;DHT22;16247;50.840;4.382;2023-08-31T14:23:14;20.60;99.90
29207;DHT22;16247;50.840;4.382;2023-08-31T14:25:40;20.60;99.90
29207;DHT22;16247;50.840;4.382;2023-08-31T14:28:07;20.70;99.90
29207;DHT22;16247;50.840;4.382;2023-08-31T14:30:38;20.80;99.90
29207;DHT22;16247;50.840;4.382;2023-08-31T14:33:04;20.70;99.90
29207;DHT22;16247;50.840;4.382;2023-08-31T14:35:36;20.50;99.90
29207;DHT22;16247;50.840;4.382;2023-08-31T14:38:04;20.40;99.90
29207;DHT22;16247;50.840;4.382;2023-08-31T14:40:29;20.60;99.90
29207;DHT22;16247;50.840;4.382;2023-08-31T14:42:57;20.50;99.90
29207;DHT22;16247;50.840;4.382;2023-08-31T14:45:47;20.60;99.90
29207;DHT22;16247;50.840;4.382;2023-08-31T14:48:16;20.10;99.90
29207;DHT22;16247;50.840;4.382;2023-08-31T14:50:59;20.00;99.90
29207;DHT22;16247;50.840;4.382;2023-08-31T14:53:26;20.00;99.90
29207;DHT22;16247;50.840;4.382;2023-08-31T14:56:05;20.10;99.90
29207;DHT22;16247;50.840;4.382;2023-08-31T14:58:54;20.10;99.90
29207;DHT22;16247;50.840;4.382;2023-08-31T15:01:30;20.20;99.90
29207;DHT22;16247;50.840;4.382;2023-08-31T15:07:19;20.30;99.90
29207;DHT22;16247;50.840;4.382;2023-08-31T15:09:52;20.10;99.90
29207;DHT22;16247;50.840;4.382;2023-08-31T15:12:21;20.30;99.90
29207;DHT22;16247;50.840;4.382;2023-08-31T15:14:52;20.30;99.90
29207;DHT22;16247;50.840;4.382;2023-08-31T15:17:18;20.10;99.90
29207;DHT22;16247;50.840;4.382;2023-08-31T15:19:45;20.10;99.90
29207;DHT22;16247;50.840;4.382;2023-08-31T15:22:11;19.90;99.90
29207;DHT22;16247;50.840;4.382;2023-08-31T15:24:37;20.00;99.90
29207;DHT22;16247;50.840;4.382;2023-08-31T15:27:14;19.90;99.90
29207;DHT22;16247;50.840;4.382;2023-08-31T15:29:45;20.00;99.90
29207;DHT22;16247;50.840;4.382;2023-08-31T15:32:12;19.90;99.90
29207;DHT22;16247;50.840;4.382;2023-08-31T15:34:41;19.90;99.90
29207;DHT22;16247;50.840;4.382;2023-08-31T15:37:10;20.00;99.90
29207;DHT22;16247;50.840;4.382;2023-08-31T15:39:39;20.00;99.90
29207;DHT22;16247;50.840;4.382;2023-08-31T15:42:04;19.90;99.90
29207;DHT22;16247;50.840;4.382;2023-08-31T15:44:31;19.60;99.90
29207;DHT22;16247;50.840;4.382;2023-08-31T15:46:59;19.60;99.90
29207;DHT22;16247;50.840;4.382;2023-08-31T15:49:37;19.50;99.90
29207;DHT22;16247;50.840;4.382;2023-08-31T15:52:04;19.50;99.90
29207;DHT22;16247;50.840;4.382;2023-08-31T15:54:30;19.40;99.90
29207;DHT22;16247;50.840;4.382;2023-08-31T15:57:16;19.50;99.90
29207;DHT22;16247;50.840;4.382;2023-08-31T15:59:48;19.20;99.90
29207;DHT22;16247;50.840;4.382;2023-08-31T16:02:19;19.20;99.90
29207;DHT22;16247;50.840;4.382;2023-08-31T16:05:21;19.20;99.90
29207;DHT22;16247;50.840;4.382;2023-08-31T16:07:48;19.10;99.90
29207;DHT22;16247;50.840;4.382;2023-08-31T16:10:14;19.00;99.90
29207;DHT22;16247;50.840;4.382;2023-08-31T16:12:44;19.00;99.90
29207;DHT22;16247;50.840;4.382;2023-08-31T16:15:15;19.10;99.90
29207;DHT22;16247;50.840;4.382;2023-08-31T16:17:43;19.20;99.90
29207;DHT22;16247;50.840;4.382;2023-08-31T16:20:12;18.90;99.90
29207;DHT22;16247;50.840;4.382;2023-08-31T16:22:39;18.80;99.90
29207;DHT22;16247;50.840;4.382;2023-08-31T16:25:08;18.70;99.90
29207;DHT22;16247;50.840;4.382;2023-08-31T16:27:36;18.80;99.90
29207;DHT22;16247;50.840;4.382;2023-08-31T16:30:08;18.80;99.90
29207;DHT22;16247;50.840;4.382;2023-08-31T16:32:35;18.90;99.90
29207;DHT22;16247;50.840;4.382;2023-08-31T16:35:02;18.60;99.90
29207;DHT22;16247;50.840;4.382;2023-08-31T16:37:32;18.40;99.90
29207;DHT22;16247;50.840;4.382;2023-08-31T16:40:02;18.50;99.90
29207;DHT22;16247;50.840;4.382;2023-08-31T16:42:30;18.50;99.90
29207;DHT22;16247;50.840;4.382;2023-08-31T16:44:55;18.30;99.90
29207;DHT22;16247;50.840;4.382;2023-08-31T16:47:21;18.20;99.90
29207;DHT22;16247;50.840;4.382;2023-08-31T16:49:47;18.00;99.90
29207;DHT22;16247;50.840;4.382;2023-08-31T16:52:14;17.90;99.90
29207;DHT22;16247;50.840;4.382;2023-08-31T16:54:40;18.00;99.90
29207;DHT22;16247;50.840;4.382;2023-08-31T16:57:09;18.00;99.90
29207;DHT22;16247;50.840;4.382;2023-08-31T16:59:35;18.00;99.90
29207;DHT22;16247;50.840;4.382;2023-08-31T17:02:00;17.90;99.90
29207;DHT22;16247;50.840;4.382;2023-08-31T17:04:28;17.80;99.90
29207;DHT22;16247;50.840;4.382;2023-08-31T17:06:53;17.80;99.90
29207;DHT22;16247;50.840;4.382;2023-08-31T17:09:20;17.80;99.90
29207;DHT22;16247;50.840;4.382;2023-08-31T17:11:46;17.90;99.90
29207;DHT22;16247;50.840;4.382;2023-08-31T17:14:13;17.70;99.90
29207;DHT22;16247;50.840;4.382;2023-08-31T17:16:41;17.80;99.90
29207;DHT22;16247;50.840;4.382;2023-08-31T17:19:10;17.80;99.90
29207;DHT22;16247;50.840;4.382;2023-08-31T17:24:55;17.70;99.90
29207;DHT22;16247;50.840;4.382;2023-08-31T17:27:45;17.50;99.90
29207;DHT22;16247;50.840;4.382;2023-08-31T17:30:15;17.30;99.90
29207;DHT22;16247;50.840;4.382;2023-08-31T17:35:18;17.30;99.90
29207;DHT22;16247;50.840;4.382;2023-08-31T17:37:44;17.40;99.90
29207;DHT22;16247;50.840;4.382;2023-08-31T17:40:09;17.50;99.90
29207;DHT22;16247;50.840;4.382;2023-08-31T17:42:40;17.40;99.90
29207;DHT22;16247;50.840;4.382;2023-08-31T17:45:16;17.50;99.90
29207;DHT22;16247;50.840;4.382;2023-08-31T17:47:42;17.30;99.90
29207;DHT22;16247;50.840;4.382;2023-08-31T17:50:08;17.40;99.90
29207;DHT22;16247;50.840;4.382;2023-08-31T17:52:34;17.20;99.90
29207;DHT22;16247;50.840;4.382;2023-08-31T17:55:03;17.20;99.90
29207;DHT22;16247;50.840;4.382;2023-08-31T17:57:29;17.10;99.90
29207;DHT22;16247;50.840;4.382;2023-08-31T17:59:56;17.00;99.90
29207;DHT22;16247;50.840;4.382;2023-08-31T18:02:25;17.10;99.90
29207;DHT22;16247;50.840;4.382;2023-08-31T18:04:52;17.00;99.90
29207;DHT22;16247;50.840;4.382;2023-08-31T18:07:20;17.00;99.90
29207;DHT22;16247;50.840;4.382;2023-08-31T18:09:45;17.00;99.90
29207;DHT22;16247;50.840;4.382;2023-08-31T18:12:14;16.90;99.90
29207;DHT22;16247;50.840;4.382;2023-08-31T18:14:39;16.90;99.90
29207;DHT22;16247;50.840;4.382;2023-08-31T18:17:06;17.00;99.90
29207;DHT22;16247;50.840;4.382;2023-08-31T18:19:34;16.90;99.90
29207;DHT22;16247;50.840;4.382;2023-08-31T18:22:02;17.00;99.90
29207;DHT22;16247;50.840;4.382;2023-08-31T18:24:29;17.00;99.90
29207;DHT22;16247;50.840;4.382;2023-08-31T18:26:55;17.10;99.90
29207;DHT22;16247;50.840;4.382;2023-08-31T18:29:21;17.20;99.90
29207;DHT22;16247;50.840;4.382;2023-08-31T18:31:49;17.00;99.90
29207;DHT22;16247;50.840;4.382;2023-08-31T18:34:17;17.00;99.90
29207;DHT22;16247;50.840;4.382;2023-08-31T18:36:43;16.90;99.90
29207;DHT22;16247;50.840;4.382;2023-08-31T18:39:10;16.90;99.90
29207;DHT22;16247;50.840;4.382;2023-08-31T18:41:39;16.90;99.90
29207;DHT22;16247;50.840;4.382;2023-08-31T18:44:06;16.90;99.90
29207;DHT22;16247;50.840;4.382;2023-08-31T18:46:32;16.80;99.90
29207;DHT22;16247;50.840;4.382;2023-08-31T18:48:58;16.80;99.90
29207;DHT22;16247;50.840;4.382;2023-08-31T18:51:31;16.50;99.90
29207;DHT22;16247;50.840;4.382;2023-08-31T18:54:00;16.60;99.90
29207;DHT22;16247;50.840;4.382;2023-08-31T18:56:30;16.70;99.90
29207;DHT22;16247;50.840;4.382;2023-08-31T18:59:06;16.80;99.90
29207;DHT22;16247;50.840;4.382;2023-08-31T19:01:52;16.80;99.90
29207;DHT22;16247;50.840;4.382;2023-08-31T19:04:44;16.70;99.90
29207;DHT22;16247;50.840;4.382;2023-08-31T19:07:32;16.80;99.90
29207;DHT22;16247;50.840;4.382;2023-08-31T19:10:12;16.80;99.90
29207;DHT22;16247;50.840;4.382;2023-08-31T19:13:19;16.60;99.90
29207;DHT22;16247;50.840;4.382;2023-08-31T19:16:02;16.40;99.90
29207;DHT22;16247;50.840;4.382;2023-08-31T19:18:42;16.40;99.90
29207;DHT22;16247;50.840;4.382;2023-08-31T19:24:32;16.50;99.90
29207;DHT22;16247;50.840;4.382;2023-08-31T19:26:58;16.40;99.90
29207;DHT22;16247;50.840;4.382;2023-08-31T19:29:26;16.40;99.90
29207;DHT22;16247;50.840;4.382;2023-08-31T19:31:51;16.50;99.90
29207;DHT22;16247;50.840;4.382;2023-08-31T19:34:19;16.40;99.90
29207;DHT22;16247;50.840;4.382;2023-08-31T19:36:46;16.30;99.90
29207;DHT22;16247;50.840;4.382;2023-08-31T19:39:13;16.40;99.90
29207;DHT22;16247;50.840;4.382;2023-08-31T19:41:38;16.40;99.90
29207;DHT22;16247;50.840;4.382;2023-08-31T19:44:04;16.60;99.90
29207;DHT22;16247;50.840;4.382;2023-08-31T19:46:31;16.60;99.90
29207;DHT22;16247;50.840;4.382;2023-08-31T19:48:57;16.50;99.90
29207;DHT22;16247;50.840;4.382;2023-08-31T19:51:23;16.60;99.90
29207;DHT22;16247;50.840;4.382;2023-08-31T19:53:48;16.60;99.90
29207;DHT22;16247;50.840;4.382;2023-08-31T19:56:14;16.80;99.90
29207;DHT22;16247;50.840;4.382;2023-08-31T19:58:40;16.70;99.90
29207;DHT22;16247;50.840;4.382;2023-08-31T20:01:07;16.60;99.90
29207;DHT22;16247;50.840;4.382;2023-08-31T20:03:33;16.70;99.90
29207;DHT22;16247;50.840;4.382;2023-08-31T20:06:05;16.50;99.90
29207;DHT22;16247;50.840;4.382;2023-08-31T20:08:31;16.60;99.90
29207;DHT22;16247;50.840;4.382;2023-08-31T20:10:58;16.40;99.90
29207;DHT22;16247;50.840;4.382;2023-08-31T20:13:44;16.40;99.90
29207;DHT22;16247;50.840;4.382;2023-08-31T20:16:10;16.40;99.90
29207;DHT22;16247;50.840;4.382;2023-08-31T20:18:44;16.30;99.90
29207;DHT22;16247;50.840;4.382;2023-08-31T20:21:10;16.30;99.90
29207;DHT22;16247;50.840;4.382;2023-08-31T20:23:43;16.30;99.90
29207;DHT22;16247;50.840;4.382;2023-08-31T20:26:12;16.30;99.90
29207;DHT22;16247;50.840;4.382;2023-08-31T20:28:39;16.20;99.90
29207;DHT22;16247;50.840;4.382;2023-08-31T20:31:06;16.20;99.90
29207;DHT22;16247;50.840;4.382;2023-08-31T20:33:32;16.30;99.90
29207;DHT22;16247;50.840;4.382;2023-08-31T20:36:08;16.20;99.90
29207;DHT22;16247;50.840;4.382;2023-08-31T20:38:37;16.10;99.90
29207;DHT22;16247;50.840;4.382;2023-08-31T20:41:25;16.10;99.90
29207;DHT22;16247;50.840;4.382;2023-08-31T20:43:56;16.10;99.90
29207;DHT22;16247;50.840;4.382;2023-08-31T20:46:26;15.90;99.90
29207;DHT22;16247;50.840;4.382;2023-08-31T20:48:55;16.10;99.90
29207;DHT22;16247;50.840;4.382;2023-08-31T20:51:22;16.10;99.90
29207;DHT22;16247;50.840;4.382;2023-08-31T20:53:48;16.10;99.90
29207;DHT22;16247;50.840;4.382;2023-08-31T20:56:18;16.10;99.90
29207;DHT22;16247;50.840;4.382;2023-08-31T20:58:50;16.00;99.90
29207;DHT22;16247;50.840;4.382;2023-08-31T21:01:15;16.00;99.90
29207;DHT22;16247;50.840;4.382;2023-08-31T21:03:43;15.90;99.90
29207;DHT22;16247;50.840;4.382;2023-08-31T21:06:11;15.90;99.90
29207;DHT22;16247;50.840;4.382;2023-08-31T21:08:38;16.00;99.90
29207;DHT22;16247;50.840;4.382;2023-08-31T21:11:05;15.90;99.90
29207;DHT22;16247;50.840;4.382;2023-08-31T21:13:31;15.90;99.90
29207;DHT22;16247;50.840;4.382;2023-08-31T21:16:02;16.00;99.90
29207;DHT22;16247;50.840;4.382;2023-08-31T21:18:31;15.90;99.90
29207;DHT22;16247;50.840;4.382;2023-08-31T21:21:00;15.90;99.90
29207;DHT22;16247;50.840;4.382;2023-08-31T21:23:26;15.90;99.90
29207;DHT22;16247;50.840;4.382;2023-08-31T21:26:14;15.90;99.90
29207;DHT22;16247;50.840;4.382;2023-08-31T21:28:48;15.80;99.90
29207;DHT22;16247;50.840;4.382;2023-08-31T21:31:23;15.90;99.90
29207;DHT22;16247;50.840;4.382;2023-08-31T21:33:48;15.90;99.90
29207;DHT22;16247;50.840;4.382;2023-08-31T21:36:17;16.10;99.90
29207;DHT22;16247;50.840;4.382;2023-08-31T21:38:45;16.00;99.90
29207;DHT22;16247;50.840;4.382;2023-08-31T21:41:13;15.80;99.90
29207;DHT22;16247;50.840;4.382;2023-08-31T21:43:39;15.90;99.90
29207;DHT22;16247;50.840;4.382;2023-08-31T21:46:07;16.00;99.90
29207;DHT22;16247;50.840;4.382;2023-08-31T21:48:34;16.00;99.90
29207;DHT22;16247;50.840;4.382;2023-08-31T21:51:00;16.00;99.90
29207;DHT22;16247;50.840;4.382;2023-08-31T21:53:27;16.10;99.90
29207;DHT22;16247;50.840;4.382;2023-08-31T21:55:53;16.20;99.90